Time;durP1;ratioP1;P1;durP2;ratioP2;P2;SDS_P1;SDS_P2;PMS_P1;PMS_P2;Temp;Humidity;BMP_temperature;BMP_pressure;BME280_temperature;BME280_humidity;BME280_pressure;Samples;Min_cycle;Max_cycle;Signal;HPM_P1;HPM_P2
2023/01/09 00:00:38;;;;;;;25.95;11.88;;;;;;;;;;5093420;28;20039;-59
2023/01/09 00:03:04;;;;;;;22.05;10.82;;;;;;;;;;5094629;28;20061;-60
2023/01/09 00:05:29;;;;;;;25.23;11.45;;;;;;;;;;5094412;28;20529;-62
2023/01/09 00:07:55;;;;;;;20.27;10.73;;;;;;;;;;5094940;28;20643;-60
2023/01/09 00:10:20;;;;;;;20.63;10.73;;;;;;;;;;5094630;28;20023;-61
2023/01/09 00:12:46;;;;;;;24.83;11.07;;;;;;;;;;5094763;28;20016;-60
2023/01/09 00:15:11;;;;;;;24.90;10.60;;;;;;;;;;5094360;28;20479;-62
2023/01/09 00:17:37;;;;;;;23.15;9.90;;;;;;;;;;5094371;28;20018;-61
2023/01/09 00:20:03;;;;;;;25.00;10.50;;;;;;;;;;5094325;28;20468;-61
2023/01/09 00:22:29;;;;;;;20.52;11.63;;;;;;;;;;5094267;28;20111;-61
2023/01/09 00:24:55;;;;;;;28.15;12.32;;;;;;;;;;5094166;28;20020;-61
2023/01/09 00:27:20;;;;;;;28.48;12.30;;;;;;;;;;5093914;28;20039;-61
2023/01/09 00:29:46;;;;;;;22.50;7.55;;;;;;;;;;5092992;28;20015;-62
2023/01/09 00:32:11;;;;;;;21.75;8.18;;;;;;;;;;5094325;28;20016;-60
2023/01/09 00:34:37;;;;;;;21.17;7.03;;;;;;;;;;5094450;28;20016;-61
2023/01/09 00:37:03;;;;;;;31.08;10.23;;;;;;;;;;5093910;28;20017;-61
2023/01/09 00:39:28;;;;;;;20.38;6.82;;;;;;;;;;5092516;28;20111;-60
2023/01/09 00:41:54;;;;;;;24.23;10.43;;;;;;;;;;5093965;28;20034;-62
2023/01/09 00:44:27;;;;;;;19.05;7.38;;;;;;;;;;5094212;28;20086;-61
2023/01/09 00:46:55;;;;;;;21.50;9.38;;;;;;;;;;5094298;28;20024;-61
2023/01/09 00:49:20;;;;;;;27.73;11.88;;;;;;;;;;5093853;28;20039;-62
2023/01/09 00:51:46;;;;;;;24.35;11.23;;;;;;;;;;5093746;28;20020;-61
2023/01/09 00:54:13;;;;;;;25.17;11.43;;;;;;;;;;5093551;28;20091;-60
2023/01/09 00:56:39;;;;;;;25.40;11.80;;;;;;;;;;5093375;28;20024;-60
2023/01/09 00:59:05;;;;;;;23.23;10.65;;;;;;;;;;5093293;28;20016;-59
2023/01/09 01:01:30;;;;;;;22.98;11.75;;;;;;;;;;5093645;28;20036;-60
2023/01/09 01:03:56;;;;;;;24.23;12.27;;;;;;;;;;5093527;28;20031;-61
2023/01/09 01:09:05;;;;;;;22.67;10.73;;;;;;;;;;5093153;28;20525;-60
2023/01/09 01:11:31;;;;;;;24.95;11.43;;;;;;;;;;5093179;28;20189;-59
2023/01/09 01:13:57;;;;;;;22.75;8.90;;;;;;;;;;5093366;28;20016;-59
2023/01/09 01:16:22;;;;;;;28.90;10.73;;;;;;;;;;5093474;28;20103;-60
2023/01/09 01:18:49;;;;;;;27.10;12.02;;;;;;;;;;5093480;28;20012;-59
2023/01/09 01:21:15;;;;;;;28.70;12.05;;;;;;;;;;5092817;28;20028;-60
2023/01/09 01:23:41;;;;;;;28.85;12.18;;;;;;;;;;5091859;28;20392;-60
2023/01/09 01:26:08;;;;;;;28.05;12.55;;;;;;;;;;5093096;28;20024;-60
2023/01/09 01:28:33;;;;;;;31.48;12.30;;;;;;;;;;5093679;28;20020;-59
2023/01/09 01:30:59;;;;;;;31.58;13.27;;;;;;;;;;5092747;28;20365;-62
2023/01/09 01:33:25;;;;;;;36.08;14.15;;;;;;;;;;5093172;28;20423;-60
2023/01/09 01:35:58;;;;;;;37.67;11.90;;;;;;;;;;5091392;28;20020;-60
2023/01/09 01:38:23;;;;;;;30.35;11.80;;;;;;;;;;5092816;28;20082;-59
2023/01/09 01:40:52;;;;;;;33.85;14.38;;;;;;;;;;5092910;28;20028;-60
2023/01/09 01:43:17;;;;;;;31.52;12.50;;;;;;;;;;5092615;28;20534;-59
2023/01/09 01:45:43;;;;;;;37.53;13.93;;;;;;;;;;5092803;28;20020;-59
2023/01/09 01:48:10;;;;;;;27.92;10.48;;;;;;;;;;5092669;28;20051;-60
2023/01/09 01:50:38;;;;;;;28.52;10.63;;;;;;;;;;5092762;28;20032;-60
2023/01/09 01:53:03;;;;;;;30.33;12.52;;;;;;;;;;5092596;28;20160;-60
2023/01/09 01:55:29;;;;;;;32.55;12.63;;;;;;;;;;5093123;28;20095;-59
2023/01/09 01:57:58;;;;;;;36.00;15.52;;;;;;;;;;5092663;28;20023;-59
2023/01/09 02:00:26;;;;;;;32.85;13.70;;;;;;;;;;5091134;28;20110;-59
2023/01/09 02:02:51;;;;;;;31.30;11.05;;;;;;;;;;5092257;28;20016;-59
2023/01/09 02:05:17;;;;;;;26.83;11.02;;;;;;;;;;5091703;28;20020;-59
2023/01/09 02:07:44;;;;;;;32.22;13.52;;;;;;;;;;5092153;28;20055;-59
2023/01/09 02:10:09;;;;;;;32.20;13.40;;;;;;;;;;5091812;28;20012;-59
2023/01/09 02:12:36;;;;;;;30.65;12.27;;;;;;;;;;5091068;28;20026;-59
2023/01/09 02:15:04;;;;;;;27.13;11.73;;;;;;;;;;5092249;28;20020;-61
2023/01/09 02:17:41;;;;;;;32.83;11.90;;;;;;;;;;5092104;28;20028;-59
2023/01/09 02:20:31;;;;;;;39.30;14.50;;;;;;;;;;5091168;28;20548;-61
2023/01/09 02:23:22;;;;;;;32.45;11.73;;;;;;;;;;5092429;28;20055;-60
2023/01/09 02:26:17;;;;;;;27.30;9.82;;;;;;;;;;5090080;28;20385;-59
2023/01/09 02:28:48;;;;;;;33.90;12.98;;;;;;;;;;5078570;28;20486;-59
2023/01/09 02:31:39;;;;;;;37.42;13.48;;;;;;;;;;5091805;28;20415;-59
2023/01/09 02:34:13;;;;;;;31.25;11.40;;;;;;;;;;5068051;28;20028;-59
2023/01/09 02:37:14;;;;;;;33.33;11.48;;;;;;;;;;5092284;28;20034;-59
2023/01/09 02:39:40;;;;;;;29.90;9.90;;;;;;;;;;5029647;28;20033;-59
2023/01/09 02:42:21;;;;;;;29.40;11.18;;;;;;;;;;5078675;28;20515;-60
2023/01/09 02:44:47;;;;;;;34.72;12.27;;;;;;;;;;5092494;28;20039;-59
2023/01/09 02:47:15;;;;;;;43.17;13.95;;;;;;;;;;5091993;28;20016;-59
2023/01/09 02:49:42;;;;;;;36.50;15.68;;;;;;;;;;5092125;28;20024;-61
2023/01/09 02:52:24;;;;;;;43.47;16.08;;;;;;;;;;5090395;28;20119;-60
2023/01/09 02:55:00;;;;;;;41.08;13.10;;;;;;;;;;5090496;28;20027;-59
2023/01/09 02:57:29;;;;;;;38.53;13.00;;;;;;;;;;5090822;28;20022;-60
2023/01/09 03:00:00;;;;;;;31.70;11.10;;;;;;;;;;5090734;28;20115;-59
2023/01/09 03:02:35;;;;;;;41.60;13.27;;;;;;;;;;5091773;28;20421;-59
2023/01/09 03:05:01;;;;;;;;;;;;;;;;;;5090667;28;20518;-60
2023/01/09 03:07:26;;;;;;;45.40;14.35;;;;;;;;;;5091306;28;19920;-59
2023/01/09 03:09:54;;;;;;;55.60;17.45;;;;;;;;;;5092056;28;20020;-59
2023/01/09 03:12:21;;;;;;;47.53;16.45;;;;;;;;;;5092230;28;20027;-60
2023/01/09 03:14:47;;;;;;;54.22;19.20;;;;;;;;;;5090337;28;20375;-59
2023/01/09 03:17:15;;;;;;;55.20;16.40;;;;;;;;;;5091417;28;20384;-60
2023/01/09 03:19:40;;;;;;;50.15;17.70;;;;;;;;;;5092258;28;20051;-66
2023/01/09 03:22:07;;;;;;;51.22;16.77;;;;;;;;;;5095194;28;20451;-60
2023/01/09 03:24:32;;;;;;;54.40;15.68;;;;;;;;;;5095330;28;20028;-60
2023/01/09 03:26:58;;;;;;;53.03;18.20;;;;;;;;;;5095654;28;20076;-59
2023/01/09 03:29:23;;;;;;;56.83;19.52;;;;;;;;;;5094046;28;20039;-60
2023/01/09 03:31:49;;;;;;;52.15;17.65;;;;;;;;;;5095399;28;20536;-59
2023/01/09 03:34:14;;;;;;;49.47;18.05;;;;;;;;;;5095120;28;20039;-59
2023/01/09 03:36:40;;;;;;;54.08;19.48;;;;;;;;;;5095129;28;20016;-59
2023/01/09 03:39:05;;;;;;;49.58;18.75;;;;;;;;;;5095350;28;20042;-60
2023/01/09 03:41:31;;;;;;;55.83;20.67;;;;;;;;;;5095035;28;20089;-59
2023/01/09 03:43:56;;;;;;;60.40;21.95;;;;;;;;;;5095508;28;20023;-60
2023/01/09 03:46:21;;;;;;;47.25;17.23;;;;;;;;;;5095046;28;20009;-59
2023/01/09 03:48:47;;;;;;;67.75;20.10;;;;;;;;;;5093618;28;20102;-60
2023/01/09 03:51:12;;;;;;;56.45;17.83;;;;;;;;;;5093663;28;20062;-59
2023/01/09 03:53:38;;;;;;;57.42;16.83;;;;;;;;;;5094831;28;20380;-59
2023/01/09 03:56:03;;;;;;;62.85;20.60;;;;;;;;;;5095517;28;20020;-59
2023/01/09 03:58:29;;;;;;;62.58;18.90;;;;;;;;;;5095393;28;20020;-60
2023/01/09 04:00:58;;;;;;;69.78;22.45;;;;;;;;;;5094274;28;20043;-60
2023/01/09 04:03:24;;;;;;;71.03;23.63;;;;;;;;;;5095036;28;20028;-60
2023/01/09 04:05:50;;;;;;;70.20;22.52;;;;;;;;;;5094089;28;20471;-60
2023/01/09 04:08:15;;;;;;;82.38;23.30;;;;;;;;;;5094545;28;20020;-60
2023/01/09 04:10:45;;;;;;;91.95;25.48;;;;;;;;;;5093336;28;20381;-59
2023/01/09 04:13:10;;;;;;;121.40;28.17;;;;;;;;;;5094675;28;20052;-59
2023/01/09 04:15:36;;;;;;;83.18;24.15;;;;;;;;;;5094257;28;20089;-60
2023/01/09 04:18:02;;;;;;;65.28;21.30;;;;;;;;;;5094558;28;20031;-59
2023/01/09 04:20:28;;;;;;;93.20;26.90;;;;;;;;;;5093073;28;20110;-60
2023/01/09 04:22:54;;;;;;;80.57;24.60;;;;;;;;;;5094777;28;20694;-60
2023/01/09 04:25:21;;;;;;;138.88;26.70;;;;;;;;;;5094190;28;20031;-60
2023/01/09 04:27:47;;;;;;;103.47;29.15;;;;;;;;;;5094203;28;20041;-59
2023/01/09 04:30:12;;;;;;;70.75;22.67;;;;;;;;;;5094074;28;20012;-59
2023/01/09 04:32:38;;;;;;;112.85;26.25;;;;;;;;;;5093639;28;20023;-62
2023/01/09 04:35:03;;;;;;;141.85;28.63;;;;;;;;;;5094037;28;20026;-59
2023/01/09 04:37:29;;;;;;;86.13;22.38;;;;;;;;;;5094011;28;20016;-59
2023/01/09 04:39:55;;;;;;;63.33;20.15;;;;;;;;;;5094031;28;20020;-60
2023/01/09 04:42:20;;;;;;;90.20;23.75;;;;;;;;;;5093852;28;20081;-59
2023/01/09 04:44:45;;;;;;;76.40;21.35;;;;;;;;;;5092498;28;20073;-59
2023/01/09 04:47:12;;;;;;;105.03;21.40;;;;;;;;;;5093475;28;20073;-59
2023/01/09 04:49:38;;;;;;;150.38;28.45;;;;;;;;;;5093523;28;20366;-59
2023/01/09 04:52:03;;;;;;;130.10;28.70;;;;;;;;;;5092322;28;20070;-59
2023/01/09 04:54:29;;;;;;;267.23;37.25;;;;;;;;;;5093556;28;20020;-60
2023/01/09 04:56:54;;;;;;;219.45;33.70;;;;;;;;;;5093603;28;20457;-60
2023/01/09 04:59:20;;;;;;;104.93;23.05;;;;;;;;;;5093163;28;20370;-60
2023/01/09 05:01:45;;;;;;;155.27;30.08;;;;;;;;;;5093214;28;20113;-58
2023/01/09 05:04:11;;;;;;;98.47;23.20;;;;;;;;;;5094019;28;20020;-59
2023/01/09 05:06:37;;;;;;;89.13;23.30;;;;;;;;;;5092321;28;20052;-59
2023/01/09 05:09:02;;;;;;;74.78;23.55;;;;;;;;;;5093491;28;20019;-60
2023/01/09 05:11:28;;;;;;;77.78;22.02;;;;;;;;;;5093462;28;20027;-61
2023/01/09 05:13:54;;;;;;;89.75;24.02;;;;;;;;;;5093476;28;20046;-61
2023/01/09 05:16:19;;;;;;;81.50;22.67;;;;;;;;;;5092279;28;20024;-61
2023/01/09 05:18:45;;;;;;;128.73;26.10;;;;;;;;;;5093424;28;20548;-60
2023/01/09 05:21:11;;;;;;;90.97;23.70;;;;;;;;;;5091717;28;20503;-60
2023/01/09 05:23:36;;;;;;;118.25;26.98;;;;;;;;;;5093653;28;20024;-61
2023/01/09 05:26:03;;;;;;;106.43;25.33;;;;;;;;;;5093620;28;20035;-59
2023/01/09 05:28:29;;;;;;;113.07;26.65;;;;;;;;;;5093586;28;20490;-60
2023/01/09 05:30:54;;;;;;;99.72;24.35;;;;;;;;;;5093463;28;20095;-59
2023/01/09 05:33:20;;;;;;;134.88;28.90;;;;;;;;;;5093221;28;20044;-60
2023/01/09 05:35:47;;;;;;;137.23;28.02;;;;;;;;;;5093383;28;20373;-61
2023/01/09 05:38:12;;;;;;;134.20;31.23;;;;;;;;;;5093470;28;20107;-61
2023/01/09 05:40:37;;;;;;;147.05;30.00;;;;;;;;;;5092920;28;20054;-59
2023/01/09 05:43:03;;;;;;;128.95;29.63;;;;;;;;;;5090837;28;20448;-61
2023/01/09 05:45:28;;;;;;;125.75;29.75;;;;;;;;;;5092875;28;20016;-60
2023/01/09 05:47:54;;;;;;;133.02;32.08;;;;;;;;;;5091610;28;20375;-59
2023/01/09 05:50:19;;;;;;;193.43;34.35;;;;;;;;;;5093292;28;20059;-63
2023/01/09 05:52:45;;;;;;;184.15;35.15;;;;;;;;;;5092223;28;20024;-60
2023/01/09 05:55:11;;;;;;;157.18;31.33;;;;;;;;;;5092807;28;20019;-59
2023/01/09 05:57:36;;;;;;;108.18;29.42;;;;;;;;;;5092703;28;20103;-60
2023/01/09 06:00:03;;;;;;;154.20;30.15;;;;;;;;;;5093081;28;20073;-60
2023/01/09 06:02:28;;;;;;;185.32;31.08;;;;;;;;;;5092856;28;20370;-63
2023/01/09 06:04:54;;;;;;;170.35;30.33;;;;;;;;;;5091837;28;20024;-61
2023/01/09 06:07:19;;;;;;;140.77;30.02;;;;;;;;;;5092109;28;20072;-60
2023/01/09 06:09:44;;;;;;;112.53;29.13;;;;;;;;;;5092269;28;20457;-61
2023/01/09 06:12:10;;;;;;;159.35;28.13;;;;;;;;;;5092185;28;20020;-61
2023/01/09 06:14:35;;;;;;;197.30;34.35;;;;;;;;;;5091878;28;20024;-59
2023/01/09 06:17:02;;;;;;;177.10;29.85;;;;;;;;;;5090129;28;20024;-61
2023/01/09 06:19:28;;;;;;;149.15;31.15;;;;;;;;;;5092413;28;20043;-61
2023/01/09 06:21:53;;;;;;;116.55;26.42;;;;;;;;;;5092346;28;20059;-60
2023/01/09 06:24:19;;;;;;;134.48;28.83;;;;;;;;;;5092688;28;20023;-61
2023/01/09 06:26:44;;;;;;;145.45;28.38;;;;;;;;;;5090261;28;20085;-62
2023/01/09 06:29:09;;;;;;;106.95;26.00;;;;;;;;;;5091875;28;20384;-60
2023/01/09 06:31:35;;;;;;;162.93;31.42;;;;;;;;;;5091405;28;20114;-61
2023/01/09 06:34:00;;;;;;;109.43;26.35;;;;;;;;;;5091703;28;20048;-61
2023/01/09 06:36:26;;;;;;;245.10;31.30;;;;;;;;;;5091657;28;20019;-61
2023/01/09 06:38:51;;;;;;;206.50;31.45;;;;;;;;;;5091427;28;20013;-60
2023/01/09 06:41:17;;;;;;;251.95;33.75;;;;;;;;;;5091184;28;20444;-60
2023/01/09 06:43:42;;;;;;;360.25;39.63;;;;;;;;;;5091642;28;20008;-62
2023/01/09 06:46:08;;;;;;;204.20;30.55;;;;;;;;;;5091250;28;20024;-61
2023/01/09 06:48:34;;;;;;;270.00;37.97;;;;;;;;;;5091097;28;20039;-61
2023/01/09 06:51:02;;;;;;;153.73;30.63;;;;;;;;;;5091385;28;20046;-61
2023/01/09 06:53:28;;;;;;;90.40;26.35;;;;;;;;;;5091510;28;20024;-61
2023/01/09 06:55:54;;;;;;;116.10;27.40;;;;;;;;;;5092711;28;20373;-61
2023/01/09 06:58:19;;;;;;;149.43;26.48;;;;;;;;;;5095159;28;20073;-61
2023/01/09 07:00:45;;;;;;;132.18;28.40;;;;;;;;;;5094910;28;20017;-61
2023/01/09 07:03:10;;;;;;;111.63;26.85;;;;;;;;;;5093654;28;20020;-62
2023/01/09 07:05:40;;;;;;;101.93;28.58;;;;;;;;;;5095292;28;20482;-60
2023/01/09 07:08:06;;;;;;;157.85;28.15;;;;;;;;;;5095137;28;20048;-61
2023/01/09 07:10:31;;;;;;;182.40;28.92;;;;;;;;;;5094706;28;20023;-61
2023/01/09 07:12:57;;;;;;;168.13;32.35;;;;;;;;;;5094299;28;20016;-62
2023/01/09 07:15:22;;;;;;;111.25;28.50;;;;;;;;;;5093230;28;20089;-61
2023/01/09 07:17:49;;;;;;;136.63;30.85;;;;;;;;;;5094383;28;20078;-61
2023/01/09 07:20:15;;;;;;;115.60;30.80;;;;;;;;;;5094274;28;20468;-61
2023/01/09 07:22:41;;;;;;;99.75;27.77;;;;;;;;;;5093155;28;20035;-61
2023/01/09 07:25:06;;;;;;;88.88;26.40;;;;;;;;;;5094372;28;20027;-61
2023/01/09 07:27:32;;;;;;;108.57;29.60;;;;;;;;;;5094367;28;20134;-61
2023/01/09 07:29:57;;;;;;;84.95;27.35;;;;;;;;;;5094080;28;20058;-61
2023/01/09 07:32:23;;;;;;;73.32;24.70;;;;;;;;;;5094450;28;20020;-61
2023/01/09 07:34:50;;;;;;;97.65;29.10;;;;;;;;;;5094661;28;20047;-60
2023/01/09 07:37:16;;;;;;;78.68;25.27;;;;;;;;;;5093024;28;20042;-61
2023/01/09 07:39:42;;;;;;;93.22;27.42;;;;;;;;;;5094726;28;20099;-61
2023/01/09 07:42:08;;;;;;;87.00;27.60;;;;;;;;;;5092878;28;20085;-62
2023/01/09 07:44:33;;;;;;;82.35;26.52;;;;;;;;;;5094371;28;20016;-60
2023/01/09 07:46:59;;;;;;;106.18;28.70;;;;;;;;;;5092364;28;20020;-62
2023/01/09 07:49:24;;;;;;;77.68;25.95;;;;;;;;;;5093870;28;20035;-61
2023/01/09 07:51:50;;;;;;;108.97;27.60;;;;;;;;;;5093955;28;20103;-62
2023/01/09 07:54:15;;;;;;;102.82;28.45;;;;;;;;;;5094020;28;20099;-59
2023/01/09 07:56:41;;;;;;;92.22;25.05;;;;;;;;;;5094058;28;20123;-61
2023/01/09 07:59:06;;;;;;;111.45;30.70;;;;;;;;;;5093101;28;20532;-61
2023/01/09 08:01:32;;;;;;;104.68;27.08;;;;;;;;;;5093391;28;20040;-61
2023/01/09 08:03:57;;;;;;;106.95;27.95;;;;;;;;;;5092821;28;20073;-61
2023/01/09 08:06:22;;;;;;;100.63;28.02;;;;;;;;;;5091224;28;20048;-61
2023/01/09 08:08:49;;;;;;;138.68;33.08;;;;;;;;;;5093465;28;20465;-61
2023/01/09 08:11:14;;;;;;;120.80;31.65;;;;;;;;;;5093713;28;20035;-61
2023/01/09 08:13:40;;;;;;;151.32;36.55;;;;;;;;;;5093476;28;20020;-60
2023/01/09 08:16:05;;;;;;;85.40;27.15;;;;;;;;;;5091736;28;20016;-61
2023/01/09 08:18:31;;;;;;;130.88;32.90;;;;;;;;;;5092356;28;20023;-59
2023/01/09 08:20:56;;;;;;;96.68;29.52;;;;;;;;;;5092868;28;20503;-62
2023/01/09 08:23:22;;;;;;;77.50;26.83;;;;;;;;;;5093538;28;20026;-61
2023/01/09 08:25:47;;;;;;;203.32;34.92;;;;;;;;;;5092526;28;20034;-59
2023/01/09 08:28:13;;;;;;;272.48;36.13;;;;;;;;;;5093554;28;20012;-61
2023/01/09 08:30:38;;;;;;;61.38;23.08;;;;;;;;;;5092360;28;20480;-60
2023/01/09 08:33:09;;;;;;;84.03;27.23;;;;;;;;;;5094287;28;20024;-61
2023/01/09 08:35:35;;;;;;;90.43;27.45;;;;;;;;;;5093633;28;20019;-60
2023/01/09 08:38:01;;;;;;;77.40;26.63;;;;;;;;;;5093300;28;20032;-61
2023/01/09 08:40:26;;;;;;;93.70;26.67;;;;;;;;;;5093319;28;20023;-60
2023/01/09 08:48:20;;;;;;;83.10;28.67;;;;;;;;;;5094636;28;20038;-61
2023/01/09 08:50:45;;;;;;;74.25;27.85;;;;;;;;;;5091754;28;20024;-61
2023/01/09 08:53:11;;;;;;;86.28;29.52;;;;;;;;;;5092700;28;20012;-61
2023/01/09 08:55:37;;;;;;;113.07;32.80;;;;;;;;;;5093455;28;20065;-61
2023/01/09 08:58:03;;;;;;;189.80;27.63;;;;;;;;;;5092883;28;20161;-61
2023/01/09 09:00:28;;;;;;;90.18;26.27;;;;;;;;;;5091914;28;20471;-59
2023/01/09 09:02:55;;;;;;;96.13;29.15;;;;;;;;;;5093263;28;20549;-60
2023/01/09 09:05:21;;;;;;;94.80;28.40;;;;;;;;;;5093095;28;20153;-60
2023/01/09 09:07:48;;;;;;;82.45;28.52;;;;;;;;;;5092596;28;20126;-59
2023/01/09 09:10:15;;;;;;;77.57;26.77;;;;;;;;;;5093170;28;20030;-62
2023/01/09 09:12:40;;;;;;;92.95;29.42;;;;;;;;;;5091394;28;20020;-62
2023/01/09 09:15:11;;;;;;;85.97;27.35;;;;;;;;;;5092548;28;20069;-61
2023/01/09 09:17:39;;;;;;;116.00;31.85;;;;;;;;;;5092519;28;20024;-61
2023/01/09 09:20:05;;;;;;;109.90;30.85;;;;;;;;;;5092840;28;20020;-61
2023/01/09 09:22:30;;;;;;;117.82;29.30;;;;;;;;;;5092276;28;20067;-60
2023/01/09 09:24:56;;;;;;;89.07;25.85;;;;;;;;;;5092401;28;20054;-65
2023/01/09 09:27:21;;;;;;;183.32;33.72;;;;;;;;;;5091154;28;20016;-60
2023/01/09 09:29:47;;;;;;;109.07;28.35;;;;;;;;;;5092275;28;20112;-61
2023/01/09 09:32:12;;;;;;;107.75;27.40;;;;;;;;;;5092661;28;20020;-60
2023/01/09 09:34:38;;;;;;;116.38;26.50;;;;;;;;;;5092605;28;20016;-61
2023/01/09 09:37:03;;;;;;;111.20;28.15;;;;;;;;;;5091952;28;20473;-61
2023/01/09 09:39:29;;;;;;;82.50;26.08;;;;;;;;;;5092417;28;20035;-59
2023/01/09 09:44:52;;;;;;;69.60;26.17;;;;;;;;;;5092129;28;20073;-60
2023/01/09 09:47:33;;;;;;;62.42;22.73;;;;;;;;;;5091877;28;20073;-61
2023/01/09 09:50:17;;;;;;;81.57;24.40;;;;;;;;;;5091129;28;20053;-61
2023/01/09 09:53:02;;;;;;;79.32;25.80;;;;;;;;;;5090551;28;20027;-60
2023/01/09 09:55:28;;;;;;;75.35;24.30;;;;;;;;;;5091901;28;20506;-60
2023/01/09 09:57:54;;;;;;;86.40;22.33;;;;;;;;;;5090640;28;20119;-60
2023/01/09 10:00:22;;;;;;;77.25;22.85;;;;;;;;;;5091937;28;20075;-60
2023/01/09 10:02:53;;;;;;;82.72;25.27;;;;;;;;;;5090135;28;20036;-61
2023/01/09 10:05:21;;;;;;;69.90;22.95;;;;;;;;;;5091621;28;20024;-61
2023/01/09 10:07:49;;;;;;;71.40;22.65;;;;;;;;;;5092478;28;20052;-62
2023/01/09 10:10:44;;;;;;;75.70;25.67;;;;;;;;;;5091548;28;20022;-62
2023/01/09 10:16:01;;;;;;;78.07;25.65;;;;;;;;;;5091754;28;20460;-61
2023/01/09 10:18:33;;;;;;;87.82;24.73;;;;;;;;;;5091266;28;20028;-62
2023/01/09 10:21:04;;;;;;;62.22;23.00;;;;;;;;;;5091459;28;20040;-61
2023/01/09 10:23:49;;;;;;;60.28;23.10;;;;;;;;;;5090255;28;20560;-61
2023/01/09 10:26:31;;;;;;;72.93;25.02;;;;;;;;;;5089863;28;20021;-60
2023/01/09 10:29:15;;;;;;;68.32;23.98;;;;;;;;;;5091529;28;20114;-62
2023/01/09 10:31:43;;;;;;;74.15;25.23;;;;;;;;;;5098129;28;20125;-61
2023/01/09 10:34:12;;;;;;;61.65;23.40;;;;;;;;;;5098105;28;20016;-61
2023/01/09 10:36:43;;;;;;;65.07;25.73;;;;;;;;;;5097473;28;20016;-61
2023/01/09 10:39:13;;;;;;;68.15;25.38;;;;;;;;;;5096329;28;20027;-61
2023/01/09 10:42:17;;;;;;;64.05;24.63;;;;;;;;;;5097457;28;20038;-61
2023/01/09 10:44:48;;;;;;;57.20;23.25;;;;;;;;;;5018289;28;20163;-61
2023/01/09 10:47:20;;;;;;;69.65;23.05;;;;;;;;;;5035151;28;20497;-61
2023/01/09 10:49:46;;;;;;;63.30;22.35;;;;;;;;;;5068725;28;20468;-62
2023/01/09 10:52:15;;;;;;;60.38;23.13;;;;;;;;;;5097310;28;20020;-62
2023/01/09 10:54:47;;;;;;;62.53;23.35;;;;;;;;;;5097456;28;20479;-62
2023/01/09 10:57:15;;;;;;;69.70;23.27;;;;;;;;;;5096474;28;20020;-62
2023/01/09 10:59:40;;;;;;;64.43;23.83;;;;;;;;;;5096514;28;20012;-63
2023/01/09 11:02:26;;;;;;;57.80;22.63;;;;;;;;;;5098043;28;20034;-62
2023/01/09 11:04:51;;;;;;;61.38;22.13;;;;;;;;;;5096414;28;20138;-62
2023/01/09 11:07:18;;;;;;;58.20;21.08;;;;;;;;;;5096574;28;20407;-61
2023/01/09 11:10:06;;;;;;;62.13;21.80;;;;;;;;;;5098437;28;20073;-62
2023/01/09 11:12:32;;;;;;;65.45;19.40;;;;;;;;;;5098213;28;20020;-62
2023/01/09 11:15:30;;;;;;;56.53;22.58;;;;;;;;;;5096896;28;20024;-62
2023/01/09 11:18:15;;;;;;;57.75;20.63;;;;;;;;;;5062610;28;20073;-62
2023/01/09 11:20:41;;;;;;;;;;;;;;;;;;5097621;28;20140;-62
2023/01/09 11:23:20;;;;;;;68.97;23.30;;;;;;;;;;5095656;28;19912;-63
2023/01/09 11:25:50;;;;;;;64.85;21.73;;;;;;;;;;5096950;28;20091;-64
2023/01/09 11:28:16;;;;;;;78.45;23.17;;;;;;;;;;5097688;28;20538;-63
2023/01/09 11:31:11;;;;;;;121.45;26.33;;;;;;;;;;5095934;28;20020;-62
2023/01/09 11:33:41;;;;;;;79.82;23.60;;;;;;;;;;5083746;28;20068;-62
2023/01/09 11:36:09;;;;;;;63.03;23.77;;;;;;;;;;5097821;28;20027;-65
2023/01/09 11:38:54;;;;;;;77.35;20.85;;;;;;;;;;5096234;28;20046;-62
2023/01/09 11:41:22;;;;;;;178.45;25.95;;;;;;;;;;5094148;28;20032;-62
2023/01/09 11:43:49;;;;;;;87.00;21.75;;;;;;;;;;5092271;28;20567;-62
2023/01/09 11:46:33;;;;;;;60.50;20.95;;;;;;;;;;5093864;28;20058;-65
2023/01/09 11:49:00;;;;;;;115.50;23.70;;;;;;;;;;5092106;28;20016;-65
2023/01/09 11:51:33;;;;;;;97.22;24.80;;;;;;;;;;5092976;28;20377;-64
2023/01/09 11:54:19;;;;;;;57.22;18.52;;;;;;;;;;5093452;28;20077;-63
2023/01/09 11:56:46;;;;;;;57.08;19.88;;;;;;;;;;5093728;28;20035;-64
2023/01/09 11:59:15;;;;;;;77.53;21.88;;;;;;;;;;5093840;28;20043;-64
2023/01/09 12:02:07;;;;;;;56.70;20.80;;;;;;;;;;5094200;28;20107;-65
2023/01/09 12:04:34;;;;;;;75.70;21.65;;;;;;;;;;5088490;28;20035;-64
2023/01/09 12:07:03;;;;;;;72.53;21.38;;;;;;;;;;5093571;28;20075;-63
2023/01/09 12:09:28;;;;;;;77.47;22.60;;;;;;;;;;5092489;28;20012;-64
2023/01/09 12:11:55;;;;;;;82.80;20.80;;;;;;;;;;5092636;28;20042;-64
2023/01/09 12:14:43;;;;;;;80.78;21.42;;;;;;;;;;5093715;28;20008;-65
2023/01/09 12:17:12;;;;;;;92.20;22.92;;;;;;;;;;5091677;28;20469;-64
2023/01/09 12:19:46;;;;;;;77.95;18.05;;;;;;;;;;5092326;28;20031;-64
2023/01/09 12:22:15;;;;;;;109.70;22.00;;;;;;;;;;5092299;28;20057;-62
2023/01/09 12:24:40;;;;;;;121.43;28.88;;;;;;;;;;5093375;28;20561;-62
2023/01/09 12:27:15;;;;;;;94.68;20.65;;;;;;;;;;5094053;28;20028;-63
2023/01/09 12:29:40;;;;;;;143.80;23.27;;;;;;;;;;5092159;28;20111;-62
2023/01/09 12:32:08;;;;;;;116.50;22.77;;;;;;;;;;5093434;28;20135;-63
2023/01/09 12:34:53;;;;;;;136.35;28.10;;;;;;;;;;5093553;28;20020;-62
2023/01/09 12:37:28;;;;;;;134.98;24.48;;;;;;;;;;5093418;28;20038;-61
2023/01/09 12:40:12;;;;;;;75.68;24.98;;;;;;;;;;5093883;28;20066;-62
2023/01/09 12:42:56;;;;;;;63.45;20.58;;;;;;;;;;5093940;28;20024;-63
2023/01/09 12:45:28;;;;;;;136.32;27.83;;;;;;;;;;5092815;28;20028;-63
2023/01/09 12:47:59;;;;;;;122.07;24.90;;;;;;;;;;5092381;28;20024;-63
2023/01/09 12:50:33;;;;;;;149.10;23.27;;;;;;;;;;5091986;28;20374;-63
2023/01/09 12:53:10;;;;;;;95.95;28.13;;;;;;;;;;5092597;28;20019;-63
2023/01/09 12:55:43;;;;;;;95.07;21.58;;;;;;;;;;5093594;28;20097;-62
2023/01/09 12:58:26;;;;;;;80.35;22.30;;;;;;;;;;5093282;28;20020;-61
2023/01/09 13:00:53;;;;;;;62.33;23.42;;;;;;;;;;5092636;28;20093;-62
2023/01/09 13:03:36;;;;;;;132.95;25.92;;;;;;;;;;5092610;28;20024;-62
2023/01/09 13:06:03;;;;;;;104.78;27.35;;;;;;;;;;5091236;28;20134;-62
2023/01/09 13:08:44;;;;;;;104.72;25.73;;;;;;;;;;5091566;28;20031;-61
2023/01/09 13:11:14;;;;;;;74.10;22.15;;;;;;;;;;5091366;28;20077;-61
2023/01/09 13:13:52;;;;;;;62.45;20.52;;;;;;;;;;5092561;28;20019;-63
2023/01/09 13:16:21;;;;;;;79.30;24.65;;;;;;;;;;5092738;28;20363;-62
2023/01/09 13:18:52;;;;;;;89.38;25.60;;;;;;;;;;5091300;28;20087;-61
2023/01/09 13:21:18;;;;;;;70.35;18.75;;;;;;;;;;5091654;28;20063;-63
2023/01/09 13:24:02;;;;;;;73.05;20.35;;;;;;;;;;5091528;28;20052;-63
2023/01/09 13:26:30;;;;;;;77.90;24.20;;;;;;;;;;5092913;28;20031;-63
2023/01/09 13:29:05;;;;;;;102.03;29.45;;;;;;;;;;5091286;28;20388;-66
2023/01/09 13:31:46;;;;;;;105.18;28.02;;;;;;;;;;5092306;28;20035;-63
2023/01/09 13:34:16;;;;;;;104.88;32.15;;;;;;;;;;5091816;28;20027;-63
2023/01/09 13:36:46;;;;;;;116.28;34.72;;;;;;;;;;5092144;28;20032;-62
2023/01/09 13:39:21;;;;;;;88.20;30.77;;;;;;;;;;5092484;28;20024;-62
2023/01/09 13:44:33;;;;;;;137.43;35.70;;;;;;;;;;5092332;28;20043;-63
2023/01/09 13:47:01;;;;;;;113.43;33.65;;;;;;;;;;5091484;28;20011;-62
2023/01/09 13:49:35;;;;;;;154.13;37.30;;;;;;;;;;5092289;28;20093;-66
2023/01/09 13:52:24;;;;;;;141.43;36.58;;;;;;;;;;5090967;28;20114;-63
2023/01/09 13:54:54;;;;;;;141.65;34.20;;;;;;;;;;5083169;28;20031;-62
2023/01/09 13:57:19;;;;;;;166.18;38.40;;;;;;;;;;5091592;28;20102;-64
2023/01/09 13:59:48;;;;;;;102.95;32.22;;;;;;;;;;5093108;28;20028;-63
2023/01/09 14:02:37;;;;;;;138.70;38.70;;;;;;;;;;5092680;28;20028;-64
2023/01/09 14:05:04;;;;;;;11.48;2.40;;;;;;;;;;5078350;28;20055;-62
2023/01/09 14:07:31;;;;;;;1.75;1.40;;;;;;;;;;5091722;28;20480;-64
2023/01/09 14:10:04;;;;;;;2.80;1.33;;;;;;;;;;5091530;28;20134;-62
2023/01/09 14:12:31;;;;;;;2.65;2.20;;;;;;;;;;5092074;28;20123;-63
2023/01/09 14:14:58;;;;;;;5.55;2.28;;;;;;;;;;5091346;28;20081;-64
2023/01/09 14:17:32;;;;;;;1.08;1.08;;;;;;;;;;5091183;28;20534;-64
2023/01/09 14:20:00;;;;;;;2.60;1.80;;;;;;;;;;5091004;28;20016;-64
2023/01/09 14:22:28;;;;;;;4.00;3.47;;;;;;;;;;5090707;28;20044;-64
2023/01/09 14:24:55;;;;;;;3.50;2.60;;;;;;;;;;5091579;28;20380;-64
2023/01/09 14:27:39;;;;;;;2.00;1.30;;;;;;;;;;5091674;28;20047;-65
2023/01/09 14:30:23;;;;;;;4.93;2.25;;;;;;;;;;5089670;28;20012;-64
2023/01/09 14:32:56;;;;;;;2.15;1.27;;;;;;;;;;5091412;28;20450;-64
2023/01/09 14:35:27;;;;;;;1.50;1.40;;;;;;;;;;5090862;28;20060;-64
2023/01/09 14:38:00;;;;;;;5.38;2.05;;;;;;;;;;5091380;28;20020;-64
2023/01/09 14:40:26;;;;;;;1.45;1.17;;;;;;;;;;5091407;28;20024;-65
2023/01/09 14:42:53;;;;;;;1.65;1.27;;;;;;;;;;5091551;28;20081;-65